createdAt,value
2019-06-01T00:00:13.205Z,16.97
2019-06-01T00:01:17.823Z,16.90
2019-06-01T00:02:22.622Z,17.00
2019-06-01T00:03:26.737Z,16.87
2019-06-01T00:04:29.338Z,16.91
2019-06-01T00:05:32.086Z,17.16
2019-06-01T00:06:34.969Z,17.17
2019-06-01T00:07:38.660Z,17.10
2019-06-01T00:08:41.459Z,17.01
2019-06-01T00:09:43.293Z,16.88
2019-06-01T00:10:45.791Z,16.95
2019-06-01T00:11:49.661Z,17.19
2019-06-01T00:12:51.498Z,17.25
2019-06-01T00:13:55.182Z,16.99
2019-06-01T00:14:58.334Z,17.03
2019-06-01T00:16:00.340Z,16.87
2019-06-01T00:17:03.422Z,16.72
2019-06-01T00:18:06.337Z,16.53
2019-06-01T00:19:08.762Z,16.68
2019-06-01T00:20:12.599Z,16.65
2019-06-01T00:21:15.123Z,16.77
2019-06-01T00:22:17.348Z,16.69
2019-06-01T00:23:20.174Z,16.68
2019-06-01T00:24:23.233Z,16.91
2019-06-01T00:25:24.912Z,16.75
2019-06-01T00:26:27.276Z,16.89
2019-06-01T00:27:29.824Z,16.66
2019-06-01T00:28:32.389Z,16.43
2019-06-01T00:29:35.177Z,16.62
2019-06-01T00:30:38.048Z,16.75
2019-06-01T00:31:41.209Z,16.56
2019-06-01T00:32:43.684Z,16.38
2019-06-01T00:33:47.556Z,16.40
2019-06-01T00:34:51.923Z,16.44
2019-06-01T00:35:54.666Z,16.47
2019-06-01T00:36:57.048Z,16.45
2019-06-01T00:38:00.084Z,16.43
2019-06-01T00:39:05.713Z,16.61
2019-06-01T00:40:09.440Z,16.70
2019-06-01T00:41:14.414Z,16.83
2019-06-01T00:42:17.867Z,16.87
2019-06-01T00:43:21.588Z,16.63
2019-06-01T00:44:24.513Z,16.57
2019-06-01T00:45:26.925Z,16.75
2019-06-01T00:46:29.284Z,16.96
2019-06-01T00:47:32.005Z,16.93
2019-06-01T00:48:34.066Z,16.92
2019-06-01T00:49:36.445Z,16.93
2019-06-01T00:50:40.246Z,16.86
2019-06-01T00:51:42.854Z,16.62
2019-06-01T00:52:45.251Z,16.84
2019-06-01T00:53:49.160Z,16.81
2019-06-01T00:54:53.526Z,16.70
2019-06-01T00:55:57.800Z,16.62
2019-06-01T00:57:00.569Z,16.63
2019-06-01T00:58:03.999Z,16.41
2019-06-01T00:59:06.841Z,16.36
2019-06-01T01:00:09.898Z,16.43
2019-06-01T01:01:12.531Z,16.32
2019-06-01T01:02:16.421Z,16.31
2019-06-01T01:03:18.693Z,16.17
2019-06-01T01:04:21.480Z,16.29
2019-06-01T01:05:24.731Z,16.29
2019-06-01T01:06:27.357Z,16.17
2019-06-01T01:07:29.888Z,16.00
2019-06-01T01:08:32.535Z,16.03
2019-06-01T01:09:35.315Z,15.95
2019-06-01T01:10:38.105Z,15.96
2019-06-01T01:11:40.743Z,15.92
2019-06-01T01:13:03.080Z,15.96
2019-06-01T01:14:06.863Z,15.97
2019-06-01T01:15:09.570Z,15.78
2019-06-01T01:16:11.605Z,15.79
2019-06-01T01:17:14.239Z,15.75
2019-06-01T01:18:16.661Z,15.71
2019-06-01T01:19:19.671Z,15.77
2019-06-01T01:20:22.694Z,15.75
2019-06-01T01:21:24.452Z,15.70
2019-06-01T01:22:26.229Z,15.80
2019-06-01T01:23:28.729Z,15.72
2019-06-01T01:24:33.777Z,15.85
2019-06-01T01:25:37.044Z,15.82
2019-06-01T01:26:39.417Z,15.74
2019-06-01T01:27:41.143Z,15.68
2019-06-01T01:28:43.660Z,15.71
2019-06-01T01:29:46.811Z,15.77
2019-06-01T01:31:05.522Z,15.65
2019-06-01T01:31:53.846Z,15.72
2019-06-01T01:32:58.163Z,15.78
2019-06-01T01:34:00.696Z,15.84
2019-06-01T01:35:06.283Z,15.82
2019-06-01T01:36:08.751Z,15.80
2019-06-01T01:37:11.654Z,15.88
2019-06-01T01:38:15.870Z,15.83
2019-06-01T01:39:18.178Z,15.69
2019-06-01T01:40:22.372Z,15.68
2019-06-01T01:41:25.314Z,15.88
2019-06-01T01:42:27.130Z,15.91
2019-06-01T01:43:29.234Z,15.77
2019-06-01T01:44:31.964Z,15.75
2019-06-01T01:45:34.390Z,15.80
2019-06-01T01:46:36.784Z,15.83
2019-06-01T01:47:39.444Z,15.98
2019-06-01T01:48:41.300Z,15.95
2019-06-01T01:49:44.246Z,15.94
2019-06-01T01:50:46.675Z,15.83
2019-06-01T01:51:50.409Z,15.83
2019-06-01T01:52:54.707Z,15.82
2019-06-01T01:53:58.787Z,15.98
2019-06-01T01:55:01.179Z,16.04
2019-06-01T01:56:03.743Z,15.89
2019-06-01T01:57:07.248Z,15.74
2019-06-01T01:58:10.549Z,15.50
2019-06-01T01:59:13.697Z,15.65
2019-06-01T02:00:36.120Z,15.64
2019-06-01T02:01:38.222Z,15.93
2019-06-01T02:02:41.232Z,15.95
2019-06-01T02:03:43.124Z,15.86
2019-06-01T02:04:45.991Z,15.88
2019-06-01T02:05:48.549Z,15.98
2019-06-01T02:06:51.817Z,16.02
2019-06-01T02:07:54.912Z,16.10
2019-06-01T02:08:57.331Z,15.98
2019-06-01T02:10:01.937Z,16.17
2019-06-01T02:11:04.700Z,16.03
2019-06-01T02:12:06.958Z,16.07
2019-06-01T02:13:11.875Z,16.08
2019-06-01T02:14:14.519Z,15.74
2019-06-01T02:15:17.434Z,15.99
2019-06-01T02:16:20.400Z,16.09
2019-06-01T02:17:23.855Z,15.89
2019-06-01T02:18:25.949Z,16.01
2019-06-01T02:19:28.489Z,16.09
2019-06-01T02:20:31.982Z,16.21
2019-06-01T02:21:33.653Z,16.27
2019-06-01T02:22:36.441Z,16.17
2019-06-01T02:23:38.847Z,16.10
2019-06-01T02:24:40.717Z,16.10
2019-06-01T02:25:43.727Z,16.04
2019-06-01T02:26:46.261Z,16.03
2019-06-01T02:27:49.547Z,16.24
2019-06-01T02:28:53.146Z,16.14
2019-06-01T02:29:55.859Z,16.07
2019-06-01T02:30:59.968Z,16.27
2019-06-01T02:32:04.770Z,16.00
2019-06-01T02:33:08.330Z,15.88
2019-06-01T02:34:10.821Z,15.88
2019-06-01T02:35:14.558Z,15.81
2019-06-01T02:36:17.509Z,15.64
2019-06-01T02:37:19.281Z,15.62
2019-06-01T02:38:22.048Z,15.43
2019-06-01T02:39:24.814Z,15.54
2019-06-01T02:40:28.977Z,15.62
2019-06-01T02:41:31.716Z,15.62
2019-06-01T02:42:33.531Z,15.77
2019-06-01T02:43:35.429Z,15.75
2019-06-01T02:44:37.896Z,15.67
2019-06-01T02:45:40.270Z,15.81
2019-06-01T02:46:42.936Z,15.83
2019-06-01T02:47:45.940Z,15.79
2019-06-01T02:48:48.225Z,15.64
2019-06-01T02:49:51.101Z,15.75
2019-06-01T02:50:55.799Z,15.77
2019-06-01T02:51:57.593Z,15.74
2019-06-01T02:53:01.509Z,15.76
2019-06-01T02:54:04.220Z,15.84
2019-06-01T02:55:15.527Z,15.76
2019-06-01T02:56:17.894Z,15.71
2019-06-01T02:57:21.694Z,15.84
2019-06-01T02:58:23.936Z,15.83
2019-06-01T02:59:26.682Z,15.87
2019-06-01T03:01:07.051Z,15.92
2019-06-01T03:02:13.637Z,16.06
2019-06-01T03:03:15.032Z,16.12
2019-06-01T03:04:18.253Z,16.04
2019-06-01T03:05:21.388Z,16.22
2019-06-01T03:06:29.492Z,16.15
2019-06-01T03:07:33.404Z,15.91
2019-06-01T03:08:36.795Z,15.95
2019-06-01T03:09:39.302Z,15.93
2019-06-01T03:10:41.348Z,16.00
2019-06-01T03:11:45.405Z,16.07
2019-06-01T03:12:50.982Z,16.24
2019-06-01T03:13:56.308Z,16.27
2019-06-01T03:15:02.717Z,16.33
2019-06-01T03:16:08.900Z,16.03
2019-06-01T03:17:15.596Z,16.11
2019-06-01T03:18:21.760Z,16.30
2019-06-01T03:19:28.094Z,15.99
2019-06-01T03:20:31.863Z,16.16
2019-06-01T03:21:34.563Z,15.96
2019-06-01T03:22:41.061Z,16.22
2019-06-01T03:23:46.581Z,16.31
2019-06-01T03:24:51.897Z,16.31
2019-06-01T03:25:55.970Z,16.14
2019-06-01T03:27:02.942Z,16.19
2019-06-01T03:28:09.273Z,16.08
2019-06-01T03:29:15.473Z,15.99
2019-06-01T03:30:38.461Z,15.93
2019-06-01T03:31:41.691Z,15.96
2019-06-01T03:32:44.799Z,15.78
2019-06-01T03:33:49.724Z,15.82
2019-06-01T03:34:53.755Z,15.64
2019-06-01T03:35:56.413Z,15.77
2019-06-01T03:37:00.851Z,15.69
2019-06-01T03:38:04.959Z,15.67
2019-06-01T03:39:08.270Z,15.87
2019-06-01T03:40:23.149Z,15.94
2019-06-01T03:41:16.896Z,16.04
2019-06-01T03:42:20.783Z,16.07
2019-06-01T03:43:22.743Z,16.01
2019-06-01T03:44:25.483Z,16.12
2019-06-01T03:45:28.125Z,16.26
2019-06-01T03:46:30.341Z,16.35
2019-06-01T03:47:32.709Z,16.29
2019-06-01T03:48:35.639Z,16.22
2019-06-01T03:49:37.360Z,16.06
2019-06-01T03:50:40.518Z,15.97
2019-06-01T03:51:42.982Z,16.03
2019-06-01T03:52:46.331Z,15.85
2019-06-01T03:53:49.065Z,15.91
2019-06-01T03:54:50.797Z,15.68
2019-06-01T03:55:53.186Z,15.73
2019-06-01T03:56:55.521Z,15.71
2019-06-01T03:57:57.214Z,15.89
2019-06-01T03:59:00.973Z,15.90
2019-06-01T04:00:07.160Z,15.99
2019-06-01T04:01:11.289Z,15.96
2019-06-01T04:02:13.954Z,16.07
2019-06-01T04:03:16.264Z,16.18
2019-06-01T04:04:19.604Z,16.37
2019-06-01T04:05:22.986Z,16.24
2019-06-01T04:06:25.908Z,16.27
2019-06-01T04:07:28.472Z,16.31
2019-06-01T04:08:31.096Z,16.41
2019-06-01T04:09:32.891Z,16.48
2019-06-01T04:10:35.215Z,16.62
2019-06-01T04:11:38.090Z,16.68
2019-06-01T04:12:40.542Z,16.72
2019-06-01T04:13:43.287Z,16.77
2019-06-01T04:14:45.860Z,16.83
2019-06-01T04:15:49.315Z,16.98
2019-06-01T04:16:51.701Z,16.79
2019-06-01T04:17:54.258Z,16.92
2019-06-01T04:18:56.604Z,16.86
2019-06-01T04:19:58.983Z,17.10
2019-06-01T04:21:02.423Z,17.30
2019-06-01T04:22:10.136Z,17.52
2019-06-01T04:23:13.406Z,17.51
2019-06-01T04:24:15.972Z,17.08
2019-06-01T04:25:19.326Z,17.03
2019-06-01T04:26:22.423Z,16.89
2019-06-01T04:27:24.735Z,16.81
2019-06-01T04:28:27.919Z,16.97
2019-06-01T04:29:31.289Z,17.21
2019-06-01T04:30:34.094Z,17.40
2019-06-01T04:31:36.992Z,17.51
2019-06-01T04:32:49.271Z,17.43
2019-06-01T04:33:44.048Z,17.49
2019-06-01T04:34:46.341Z,17.63
2019-06-01T04:35:48.765Z,17.59
2019-06-01T04:36:50.479Z,17.59
2019-06-01T04:37:53.695Z,17.77
2019-06-01T04:38:57.699Z,17.81
2019-06-01T04:40:00.415Z,17.85
2019-06-01T04:41:03.573Z,17.82
2019-06-01T04:42:07.630Z,18.03
2019-06-01T04:43:10.265Z,17.97
2019-06-01T04:44:14.317Z,18.13
2019-06-01T04:45:17.295Z,18.16
2019-06-01T04:46:22.011Z,17.95
2019-06-01T04:47:26.511Z,17.93
2019-06-01T04:48:29.026Z,17.74
2019-06-01T04:49:33.052Z,17.85
2019-06-01T04:50:36.215Z,18.08
2019-06-01T04:51:38.011Z,18.04
2019-06-01T04:52:40.971Z,17.96
2019-06-01T04:53:44.231Z,18.04
2019-06-01T04:54:45.979Z,17.89
2019-06-01T04:55:50.018Z,17.97
2019-06-01T04:56:52.371Z,17.84
2019-06-01T04:57:54.781Z,17.73
2019-06-01T04:58:57.517Z,17.66
2019-06-01T05:00:00.164Z,17.66
2019-06-01T05:01:04.752Z,17.81
2019-06-01T05:02:07.586Z,17.96
2019-06-01T05:03:11.892Z,17.93
2019-06-01T05:04:15.425Z,17.86
2019-06-01T05:05:18.161Z,17.88
2019-06-01T05:06:20.098Z,17.92
2019-06-01T05:07:21.843Z,18.13
2019-06-01T05:08:25.661Z,18.09
2019-06-01T05:09:27.401Z,18.41
2019-06-01T05:10:30.092Z,18.52
2019-06-01T05:11:32.362Z,18.54
2019-06-01T05:12:35.366Z,18.63
2019-06-01T05:13:39.832Z,18.54
2019-06-01T05:14:44.777Z,18.32
2019-06-01T05:15:47.346Z,18.44
2019-06-01T05:16:50.167Z,18.22
2019-06-01T05:17:53.653Z,18.23
2019-06-01T05:18:56.482Z,18.18
2019-06-01T05:19:58.906Z,18.26
2019-06-01T05:21:01.370Z,18.29
2019-06-01T05:22:04.732Z,18.28
2019-06-01T05:23:08.462Z,18.35
2019-06-01T05:24:10.673Z,18.29
2019-06-01T05:25:15.380Z,18.41
2019-06-01T05:26:18.233Z,18.51
2019-06-01T05:27:21.382Z,18.43
2019-06-01T05:28:23.792Z,18.61
2019-06-01T05:29:27.032Z,18.57
2019-06-01T05:30:31.631Z,18.63
2019-06-01T05:31:35.014Z,18.84
2019-06-01T05:32:37.817Z,18.81
2019-06-01T05:33:41.011Z,18.76
2019-06-01T05:34:43.776Z,18.84
2019-06-01T05:35:48.526Z,19.08
2019-06-01T05:36:51.292Z,18.95
2019-06-01T05:37:54.287Z,19.18
2019-06-01T05:38:57.057Z,19.16
2019-06-01T05:39:59.362Z,19.22
2019-06-01T05:41:03.559Z,18.98
2019-06-01T05:42:06.336Z,19.06
2019-06-01T05:43:13.834Z,19.27
2019-06-01T05:44:14.950Z,19.38
2019-06-01T05:45:22.205Z,19.50
2019-06-01T05:46:24.779Z,19.52
2019-06-01T05:47:27.463Z,19.76
2019-06-01T05:48:30.857Z,19.73
2019-06-01T05:49:32.997Z,19.74
2019-06-01T05:50:35.759Z,19.63
2019-06-01T05:51:38.180Z,19.59
2019-06-01T05:52:41.865Z,19.51
2019-06-01T05:53:44.963Z,19.55
2019-06-01T05:54:48.092Z,19.58
2019-06-01T05:55:50.930Z,19.71
2019-06-01T05:56:53.515Z,19.74
2019-06-01T05:57:55.260Z,19.89
2019-06-01T05:58:58.273Z,20.00
2019-06-01T06:00:01.752Z,20.02
2019-06-01T06:01:04.021Z,19.87
2019-06-01T06:02:06.765Z,19.61
2019-06-01T06:03:12.801Z,19.87
2019-06-01T06:04:14.098Z,19.68
2019-06-01T06:05:17.299Z,19.55
2019-06-01T06:06:21.970Z,19.66
2019-06-01T06:07:27.237Z,19.66
2019-06-01T06:08:30.005Z,19.53
2019-06-01T06:09:32.011Z,19.58
2019-06-01T06:10:35.827Z,19.72
2019-06-01T06:11:38.429Z,19.75
2019-06-01T06:12:41.549Z,19.63
2019-06-01T06:13:46.148Z,19.66
2019-06-01T06:14:49.250Z,19.66
2019-06-01T06:15:53.339Z,19.77
2019-06-01T06:16:55.898Z,19.62
2019-06-01T06:17:58.906Z,19.62
2019-06-01T06:19:03.483Z,19.77
2019-06-01T06:20:07.124Z,19.95
2019-06-01T06:21:09.995Z,20.08
2019-06-01T06:22:12.067Z,19.89
2019-06-01T06:23:16.484Z,20.04
2019-06-01T06:24:18.540Z,20.14
2019-06-01T06:25:21.907Z,20.13
2019-06-01T06:26:25.220Z,20.13
2019-06-01T06:27:28.618Z,20.27
2019-06-01T06:28:30.469Z,20.30
2019-06-01T06:29:33.296Z,20.35
2019-06-01T06:30:36.339Z,20.40
2019-06-01T06:31:40.524Z,20.50
2019-06-01T06:32:43.713Z,20.67
2019-06-01T06:33:56.104Z,20.73
2019-06-01T06:34:51.799Z,20.72
2019-06-01T06:35:54.926Z,20.55
2019-06-01T06:36:57.129Z,20.48
2019-06-01T06:38:01.200Z,20.57
2019-06-01T06:39:06.285Z,20.53
2019-06-01T06:40:10.121Z,20.61
2019-06-01T06:41:13.997Z,20.53
2019-06-01T06:42:18.633Z,20.49
2019-06-01T06:43:29.483Z,20.65
2019-06-01T06:44:26.626Z,20.75
2019-06-01T06:45:28.885Z,20.84
2019-06-01T06:46:32.203Z,20.97
2019-06-01T06:47:36.338Z,20.94
2019-06-01T06:48:39.309Z,20.90
2019-06-01T06:49:42.220Z,20.97
2019-06-01T06:50:47.794Z,20.94
2019-06-01T06:51:51.396Z,20.81
2019-06-01T06:52:54.098Z,20.77
2019-06-01T06:53:57.159Z,20.86
2019-06-01T06:55:00.083Z,20.92
2019-06-01T06:56:04.343Z,20.72
2019-06-01T06:57:08.222Z,20.68
2019-06-01T06:58:14.197Z,20.62
2019-06-01T06:59:18.330Z,20.81
2019-06-01T07:00:22.681Z,20.96
2019-06-01T07:01:26.875Z,21.09
2019-06-01T07:02:30.055Z,21.26
2019-06-01T07:03:32.731Z,21.38
2019-06-01T07:04:35.388Z,21.45
2019-06-01T07:05:38.199Z,21.27
2019-06-01T07:06:41.646Z,21.21
2019-06-01T07:07:44.476Z,21.10
2019-06-01T07:08:48.860Z,20.95
2019-06-01T07:09:53.080Z,20.83
2019-06-01T07:10:55.839Z,20.81
2019-06-01T07:11:58.655Z,20.89
2019-06-01T07:13:01.960Z,21.05
2019-06-01T07:14:05.931Z,21.08
2019-06-01T07:15:09.109Z,21.06
2019-06-01T07:16:13.133Z,21.15
2019-06-01T07:17:16.619Z,21.12
2019-06-01T07:18:19.913Z,21.24
2019-06-01T07:19:23.663Z,21.27
2019-06-01T07:20:27.835Z,21.32
2019-06-01T07:21:32.002Z,21.31
2019-06-01T07:22:35.799Z,21.05
2019-06-01T07:23:41.729Z,21.08
2019-06-01T07:24:44.245Z,21.11
2019-06-01T07:25:49.117Z,21.19
2019-06-01T07:26:52.247Z,21.22
2019-06-01T07:27:54.971Z,21.23
2019-06-01T07:29:03.176Z,21.17
2019-06-01T07:30:08.067Z,21.32
2019-06-01T07:31:10.870Z,21.41
2019-06-01T07:32:14.352Z,21.39
2019-06-01T07:33:17.303Z,21.29
2019-06-01T07:34:30.921Z,21.50
2019-06-01T07:35:26.665Z,21.62
2019-06-01T07:36:29.519Z,21.73
2019-06-01T07:37:32.748Z,21.67
2019-06-01T07:38:35.733Z,21.54
2019-06-01T07:39:37.568Z,21.50
2019-06-01T07:40:40.863Z,21.70
2019-06-01T07:41:43.563Z,21.66
2019-06-01T07:42:46.780Z,21.54
2019-06-01T07:43:49.803Z,21.51
2019-06-01T07:44:52.284Z,21.61
2019-06-01T07:45:54.344Z,21.74
2019-06-01T07:46:57.223Z,21.77
2019-06-01T07:47:59.792Z,21.83
2019-06-01T07:49:03.061Z,21.86
2019-06-01T07:50:06.560Z,21.92
2019-06-01T07:51:09.634Z,21.86
2019-06-01T07:52:13.377Z,22.07
2019-06-01T07:53:16.988Z,22.00
2019-06-01T07:54:20.266Z,21.67
2019-06-01T07:55:23.529Z,21.51
2019-06-01T07:56:26.936Z,21.67
2019-06-01T07:57:31.793Z,21.62
2019-06-01T07:58:33.973Z,21.66
2019-06-01T07:59:38.923Z,21.56
2019-06-01T08:00:40.902Z,21.65
2019-06-01T08:01:46.578Z,21.56
2019-06-01T08:02:50.035Z,21.67
2019-06-01T08:03:52.953Z,21.50
2019-06-01T08:04:56.314Z,21.56
2019-06-01T08:05:59.268Z,21.79
2019-06-01T08:07:06.436Z,21.88
2019-06-01T08:08:10.035Z,21.94
2019-06-01T08:09:13.644Z,21.94
2019-06-01T08:10:16.237Z,21.85
2019-06-01T08:11:19.479Z,21.86
2019-06-01T08:12:23.387Z,21.78
2019-06-01T08:13:31.507Z,21.86
2019-06-01T08:14:32.764Z,21.77
2019-06-01T08:15:34.917Z,21.96
2019-06-01T08:16:39.389Z,22.13
2019-06-01T08:17:42.146Z,21.99
2019-06-01T08:18:43.850Z,22.04
2019-06-01T08:19:51.648Z,22.15
2019-06-01T08:20:52.185Z,21.97
2019-06-01T08:21:54.771Z,22.00
2019-06-01T08:22:59.638Z,21.84
2019-06-01T08:24:02.741Z,21.95
2019-06-01T08:25:06.953Z,21.93
2019-06-01T08:26:09.815Z,22.11
2019-06-01T08:27:13.044Z,22.25
2019-06-01T08:28:16.182Z,21.99
2019-06-01T08:29:22.613Z,22.12
2019-06-01T08:30:28.666Z,22.29
2019-06-01T08:31:38.039Z,22.43
2019-06-01T08:32:42.381Z,22.16
2019-06-01T08:33:46.434Z,22.01
2019-06-01T08:35:04.823Z,22.18
2019-06-01T08:35:54.908Z,22.20
2019-06-01T08:36:58.178Z,21.97
2019-06-01T08:38:03.158Z,22.11
2019-06-01T08:39:08.134Z,22.28
2019-06-01T08:40:10.705Z,22.43
2019-06-01T08:41:15.305Z,22.41
2019-06-01T08:42:18.725Z,22.51
2019-06-01T08:43:23.538Z,22.42
2019-06-01T08:44:27.759Z,22.37
2019-06-01T08:45:35.357Z,22.45
2019-06-01T08:46:35.602Z,22.31
2019-06-01T08:47:39.937Z,22.17
2019-06-01T08:48:41.860Z,22.23
2019-06-01T08:49:45.112Z,22.20
2019-06-01T08:50:48.474Z,22.06
2019-06-01T08:51:51.866Z,22.28
2019-06-01T08:52:54.607Z,22.30
2019-06-01T08:54:00.930Z,22.35
2019-06-01T08:55:06.035Z,22.38
2019-06-01T08:56:09.147Z,22.48
2019-06-01T08:57:13.589Z,22.61
2019-06-01T08:58:15.466Z,22.46
2019-06-01T08:59:20.296Z,22.60
2019-06-01T09:00:24.354Z,22.70
2019-06-01T09:01:29.104Z,22.68
2019-06-01T09:02:32.818Z,22.66
2019-06-01T09:03:45.482Z,22.47
2019-06-01T09:04:42.135Z,22.62
2019-06-01T09:05:45.585Z,22.70
2019-06-01T09:06:47.914Z,22.44
2019-06-01T09:07:50.595Z,22.48
2019-06-01T09:08:53.746Z,22.58
2019-06-01T09:09:58.213Z,22.51
2019-06-01T09:11:03.388Z,22.50
2019-06-01T09:12:09.495Z,22.52
2019-06-01T09:13:11.709Z,22.53
2019-06-01T09:14:14.819Z,22.71
2019-06-01T09:15:18.745Z,22.67
2019-06-01T09:16:25.499Z,22.77
2019-06-01T09:17:31.542Z,22.77
2019-06-01T09:18:33.741Z,22.98
2019-06-01T09:19:37.912Z,22.92
2019-06-01T09:20:43.274Z,22.90
2019-06-01T09:21:46.299Z,22.76
2019-06-01T09:22:51.674Z,22.94
2019-06-01T09:23:57.091Z,23.00
2019-06-01T09:25:00.456Z,22.89
2019-06-01T09:26:03.781Z,22.99
2019-06-01T09:27:06.780Z,23.04
2019-06-01T09:28:09.959Z,23.17
2019-06-01T09:29:12.922Z,23.08
2019-06-01T09:30:16.639Z,23.09
2019-06-01T09:31:19.627Z,23.15
2019-06-01T09:32:22.821Z,23.04
2019-06-01T09:33:26.107Z,23.00
2019-06-01T09:34:28.502Z,22.84
2019-06-01T09:35:48.647Z,22.73
2019-06-01T09:36:36.818Z,22.87
2019-06-01T09:37:40.477Z,22.83
2019-06-01T09:38:43.389Z,22.88
2019-06-01T09:39:45.571Z,22.89
2019-06-01T09:40:48.952Z,23.00
2019-06-01T09:41:52.129Z,23.13
2019-06-01T09:42:54.827Z,23.28
2019-06-01T09:43:57.709Z,23.36
2019-06-01T09:45:01.423Z,23.21
2019-06-01T09:46:03.770Z,23.22
2019-06-01T09:47:06.896Z,23.30
2019-06-01T09:48:09.796Z,23.10
2019-06-01T09:49:11.903Z,22.93
2019-06-01T09:50:14.925Z,22.94
2019-06-01T09:51:18.395Z,22.95
2019-06-01T09:52:22.042Z,23.15
2019-06-01T09:53:25.091Z,23.09
2019-06-01T09:54:29.453Z,23.08
2019-06-01T09:55:34.424Z,23.15
2019-06-01T09:56:39.821Z,23.30
2019-06-01T09:57:42.590Z,23.31
2019-06-01T09:58:45.482Z,23.26
2019-06-01T09:59:48.894Z,23.25
2019-06-01T10:00:51.038Z,23.14
2019-06-01T10:01:56.681Z,23.31
2019-06-01T10:02:59.512Z,23.40
2019-06-01T10:04:02.540Z,23.29
2019-06-01T10:05:07.615Z,23.39
2019-06-01T10:06:13.849Z,23.52
2019-06-01T10:07:15.733Z,23.37
2019-06-01T10:08:18.507Z,23.44
2019-06-01T10:09:20.399Z,23.36
2019-06-01T10:10:23.425Z,23.31
2019-06-01T10:11:26.297Z,23.23
2019-06-01T10:12:28.223Z,23.21
2019-06-01T10:13:30.582Z,23.31
2019-06-01T10:14:34.163Z,23.45
2019-06-01T10:15:39.522Z,23.61
2019-06-01T10:16:43.140Z,23.64
2019-06-01T10:17:46.895Z,23.71
2019-06-01T10:18:51.542Z,23.53
2019-06-01T10:19:55.275Z,23.64
2019-06-01T10:20:58.121Z,23.71
2019-06-01T10:22:00.807Z,23.80
2019-06-01T10:23:05.715Z,23.86
2019-06-01T10:24:08.155Z,23.89
2019-06-01T10:25:10.891Z,23.74
2019-06-01T10:26:14.158Z,23.92
2019-06-01T10:27:16.625Z,24.00
2019-06-01T10:28:18.767Z,23.95
2019-06-01T10:29:21.987Z,23.92
2019-06-01T10:30:25.258Z,23.74
2019-06-01T10:31:27.686Z,23.82
2019-06-01T10:32:32.363Z,23.70
2019-06-01T10:33:34.815Z,23.86
2019-06-01T10:34:39.848Z,23.84
2019-06-01T10:35:43.173Z,23.93
2019-06-01T10:36:46.150Z,23.94
2019-06-01T10:37:49.031Z,24.00
2019-06-01T10:38:51.971Z,23.89
2019-06-01T10:39:55.223Z,23.97
2019-06-01T10:40:57.557Z,24.01
2019-06-01T10:42:00.523Z,24.10
2019-06-01T10:43:03.570Z,24.21
2019-06-01T10:44:06.401Z,24.04
2019-06-01T10:45:10.995Z,23.78
2019-06-01T10:46:14.140Z,23.79
2019-06-01T10:47:17.550Z,23.84
2019-06-01T10:48:20.931Z,24.02
2019-06-01T10:49:24.016Z,24.16
2019-06-01T10:50:32.809Z,24.22
2019-06-01T10:51:34.189Z,24.21
2019-06-01T10:52:38.380Z,24.27
2019-06-01T10:53:43.893Z,24.35
2019-06-01T10:54:49.030Z,24.39
2019-06-01T10:55:52.132Z,24.21
2019-06-01T10:56:56.493Z,24.25
2019-06-01T10:57:59.597Z,24.23
2019-06-01T10:59:03.689Z,23.98
2019-06-01T11:01:10.634Z,24.11
2019-06-01T11:02:18.281Z,23.96
2019-06-01T11:03:20.755Z,23.93
2019-06-01T11:04:24.589Z,23.96
2019-06-01T11:05:29.528Z,24.13
2019-06-01T11:06:40.191Z,24.02
2019-06-01T11:07:37.434Z,24.03
2019-06-01T11:08:41.071Z,23.77
2019-06-01T11:09:43.316Z,23.84
2019-06-01T11:10:46.297Z,23.76
2019-06-01T11:11:49.283Z,23.97
2019-06-01T11:12:51.518Z,24.08
2019-06-01T11:13:56.263Z,24.19
2019-06-01T11:14:59.052Z,24.31
2019-06-01T11:16:01.799Z,24.36
2019-06-01T11:17:05.979Z,24.44
2019-06-01T11:18:09.314Z,24.45
2019-06-01T11:19:11.016Z,24.41
2019-06-01T11:20:17.668Z,24.48
2019-06-01T11:21:22.149Z,24.58
2019-06-01T11:22:25.513Z,24.66
2019-06-01T11:23:28.391Z,24.68
2019-06-01T11:24:30.298Z,24.79
2019-06-01T11:25:33.467Z,24.87
2019-06-01T11:26:37.979Z,24.84
2019-06-01T11:27:39.928Z,24.86
2019-06-01T11:28:45.338Z,24.89
2019-06-01T11:29:51.543Z,24.93
2019-06-01T11:30:52.133Z,24.96
2019-06-01T11:31:55.691Z,25.00
2019-06-01T11:32:58.579Z,24.99
2019-06-01T11:34:01.489Z,25.06
2019-06-01T11:35:06.357Z,25.10
2019-06-01T11:36:09.943Z,25.04
2019-06-01T11:37:15.489Z,24.89
2019-06-01T11:38:18.377Z,24.84
2019-06-01T11:39:20.449Z,24.65
2019-06-01T11:40:23.961Z,24.77
2019-06-01T11:41:27.361Z,24.64
2019-06-01T11:42:30.512Z,24.54
2019-06-01T11:43:35.125Z,24.54
2019-06-01T11:44:38.969Z,24.54
2019-06-01T11:45:41.378Z,24.59
2019-06-01T11:46:45.495Z,24.51
2019-06-01T11:47:48.893Z,24.51
2019-06-01T11:48:52.063Z,24.22
2019-06-01T11:49:57.237Z,24.33
2019-06-01T11:51:01.164Z,24.44
2019-06-01T11:52:05.739Z,24.46
2019-06-01T11:53:08.425Z,24.39
2019-06-01T11:54:10.696Z,24.41
2019-06-01T11:55:12.833Z,24.46
2019-06-01T11:56:15.121Z,24.17
2019-06-01T11:57:17.994Z,24.11
2019-06-01T11:58:20.530Z,24.03
2019-06-01T11:59:23.619Z,24.11
2019-06-01T12:00:26.940Z,24.07
2019-06-01T12:01:30.330Z,24.13
2019-06-01T12:02:33.717Z,24.00
2019-06-01T12:03:35.557Z,24.16
2019-06-01T12:04:37.912Z,24.29
2019-06-01T12:05:42.008Z,24.21
2019-06-01T12:06:46.300Z,24.33
2019-06-01T12:07:50.907Z,24.37
2019-06-01T12:08:54.280Z,24.43
2019-06-01T12:09:57.374Z,24.38
2019-06-01T12:11:02.578Z,24.44
2019-06-01T12:12:05.407Z,24.45
2019-06-01T12:13:07.218Z,24.48
2019-06-01T12:14:09.686Z,24.49
2019-06-01T12:15:15.466Z,24.55
2019-06-01T12:16:17.224Z,24.63
2019-06-01T12:17:21.346Z,24.64
2019-06-01T12:18:23.659Z,24.72
2019-06-01T12:19:26.808Z,24.85
2019-06-01T12:20:33.658Z,24.80
2019-06-01T12:21:37.077Z,24.89
2019-06-01T12:22:40.844Z,24.99
2019-06-01T12:23:43.636Z,25.06
2019-06-01T12:24:47.407Z,25.13
2019-06-01T12:25:50.296Z,25.10
2019-06-01T12:26:52.824Z,25.09
2019-06-01T12:27:56.106Z,25.14
2019-06-01T12:29:00.188Z,24.99
2019-06-01T12:30:06.865Z,24.69
2019-06-01T12:31:09.239Z,24.15
2019-06-01T12:32:13.737Z,24.09
2019-06-01T12:33:16.785Z,24.10
2019-06-01T12:34:19.212Z,24.00
2019-06-01T12:35:22.423Z,23.98
2019-06-01T12:36:25.057Z,24.11
2019-06-01T12:37:45.433Z,23.95
2019-06-01T12:38:34.463Z,23.74
2019-06-01T12:39:38.247Z,23.82
2019-06-01T12:40:41.121Z,23.79
2019-06-01T12:41:45.664Z,23.86
2019-06-01T12:42:48.233Z,23.80
2019-06-01T12:44:09.218Z,23.66
2019-06-01T12:45:17.010Z,23.68
2019-06-01T12:46:19.811Z,23.79
2019-06-01T12:47:22.820Z,23.91
2019-06-01T12:48:26.599Z,23.90
2019-06-01T12:49:29.219Z,23.92
2019-06-01T12:50:32.083Z,23.83
2019-06-01T12:51:34.988Z,23.96
2019-06-01T12:52:37.560Z,23.99
2019-06-01T12:53:40.370Z,24.09
2019-06-01T12:54:44.671Z,23.93
2019-06-01T12:55:47.329Z,23.99
2019-06-01T12:56:49.933Z,23.81
2019-06-01T12:57:51.735Z,23.71
2019-06-01T12:58:54.501Z,23.67
2019-06-01T12:59:57.022Z,23.82
2019-06-01T13:01:02.705Z,24.00
2019-06-01T13:02:05.894Z,23.87
2019-06-01T13:03:09.782Z,23.92
2019-06-01T13:04:12.208Z,24.07
2019-06-01T13:05:15.494Z,24.10
2019-06-01T13:06:18.171Z,24.24
2019-06-01T13:07:20.146Z,24.26
2019-06-01T13:08:23.256Z,24.18
2019-06-01T13:09:25.638Z,24.10
2019-06-01T13:10:30.800Z,24.16
2019-06-01T13:11:33.407Z,24.12
2019-06-01T13:12:35.644Z,24.17
2019-06-01T13:13:41.175Z,24.22
2019-06-01T13:14:43.534Z,24.28
2019-06-01T13:15:47.700Z,24.20
2019-06-01T13:17:05.918Z,24.29
2019-06-01T13:17:54.605Z,23.96
2019-06-01T13:18:58.298Z,24.01
2019-06-01T13:20:01.368Z,23.98
2019-06-01T13:21:04.326Z,23.88
2019-06-01T13:22:06.590Z,23.80
2019-06-01T13:23:08.975Z,23.85
2019-06-01T13:24:11.318Z,23.92
2019-06-01T13:25:16.797Z,24.04
2019-06-01T13:26:19.353Z,24.23
2019-06-01T13:27:22.637Z,24.31
2019-06-01T13:28:37.622Z,24.45
2019-06-01T13:29:29.321Z,24.48
2019-06-01T13:30:32.034Z,24.35
2019-06-01T13:31:35.029Z,24.45
2019-06-01T13:32:38.031Z,24.61
2019-06-01T13:33:40.524Z,24.73
2019-06-01T13:34:43.047Z,24.83
2019-06-01T13:35:46.579Z,24.92
2019-06-01T13:36:49.178Z,24.99
2019-06-01T13:38:10.776Z,24.91
2019-06-01T13:38:58.389Z,24.90